sensor_id;sensor_type;location;lat;lon;timestamp;temperature;humidity
26051;DHT22;13825;53.496;10.020;2022-12-07T00:01:49;2.90;99.90
26051;DHT22;13825;53.496;10.020;2022-12-07T00:04:17;3.00;99.90
26051;DHT22;13825;53.496;10.020;2022-12-07T00:06:46;3.00;99.90
26051;DHT22;13825;53.496;10.020;2022-12-07T00:09:17;3.00;99.90
26051;DHT22;13825;53.496;10.020;2022-12-07T00:11:45;3.00;99.90
26051;DHT22;13825;53.496;10.020;2022-12-07T00:14:16;3.00;99.90
26051;DHT22;13825;53.496;10.020;2022-12-07T00:16:49;3.10;99.90
26051;DHT22;13825;53.496;10.020;2022-12-07T00:19:16;3.00;99.90
26051;DHT22;13825;53.496;10.020;2022-12-07T00:21:44;3.10;99.90
26051;DHT22;13825;53.496;10.020;2022-12-07T00:24:11;2.90;99.90
26051;DHT22;13825;53.496;10.020;2022-12-07T00:26:42;2.90;99.90
26051;DHT22;13825;53.496;10.020;2022-12-07T00:29:17;2.90;99.90
26051;DHT22;13825;53.496;10.020;2022-12-07T00:31:45;2.90;99.90
26051;DHT22;13825;53.496;10.020;2022-12-07T00:34:14;2.90;99.90
26051;DHT22;13825;53.496;10.020;2022-12-07T00:36:43;3.00;99.90
26051;DHT22;13825;53.496;10.020;2022-12-07T00:39:11;3.00;99.90
26051;DHT22;13825;53.496;10.020;2022-12-07T00:41:40;3.00;99.90
26051;DHT22;13825;53.496;10.020;2022-12-07T00:44:07;3.00;99.90
26051;DHT22;13825;53.496;10.020;2022-12-07T00:46:35;3.00;99.90
26051;DHT22;13825;53.496;10.020;2022-12-07T00:49:02;3.00;99.90
26051;DHT22;13825;53.496;10.020;2022-12-07T00:51:33;3.00;99.90
26051;DHT22;13825;53.496;10.020;2022-12-07T00:54:03;3.00;99.90
26051;DHT22;13825;53.496;10.020;2022-12-07T00:56:35;3.00;99.90
26051;DHT22;13825;53.496;10.020;2022-12-07T00:59:05;3.00;99.90
26051;DHT22;13825;53.496;10.020;2022-12-07T01:01:35;3.00;99.90
26051;DHT22;13825;53.496;10.020;2022-12-07T01:04:04;3.10;99.90
26051;DHT22;13825;53.496;10.020;2022-12-07T01:06:32;3.20;99.90
26051;DHT22;13825;53.496;10.020;2022-12-07T01:09:03;3.20;99.90
26051;DHT22;13825;53.496;10.020;2022-12-07T01:11:34;3.20;99.90
26051;DHT22;13825;53.496;10.020;2022-12-07T01:14:05;3.10;99.90
26051;DHT22;13825;53.496;10.020;2022-12-07T01:16:33;3.10;99.90
26051;DHT22;13825;53.496;10.020;2022-12-07T01:19:01;3.10;99.90
26051;DHT22;13825;53.496;10.020;2022-12-07T01:21:31;3.10;99.90
26051;DHT22;13825;53.496;10.020;2022-12-07T01:24:07;3.10;99.90
26051;DHT22;13825;53.496;10.020;2022-12-07T01:26:41;3.00;99.90
26051;DHT22;13825;53.496;10.020;2022-12-07T01:29:10;3.00;99.90
26051;DHT22;13825;53.496;10.020;2022-12-07T01:31:37;3.00;99.90
26051;DHT22;13825;53.496;10.020;2022-12-07T01:34:04;3.10;99.90
26051;DHT22;13825;53.496;10.020;2022-12-07T01:36:34;3.10;99.90
26051;DHT22;13825;53.496;10.020;2022-12-07T01:39:04;3.10;99.90
26051;DHT22;13825;53.496;10.020;2022-12-07T01:41:37;3.20;99.90
26051;DHT22;13825;53.496;10.020;2022-12-07T01:44:16;3.20;99.90
26051;DHT22;13825;53.496;10.020;2022-12-07T01:46:44;3.20;99.90
26051;DHT22;13825;53.496;10.020;2022-12-07T01:49:16;3.20;99.90
26051;DHT22;13825;53.496;10.020;2022-12-07T01:51:45;3.30;99.90
26051;DHT22;13825;53.496;10.020;2022-12-07T01:54:16;3.30;99.90
26051;DHT22;13825;53.496;10.020;2022-12-07T01:56:47;3.30;99.90
26051;DHT22;13825;53.496;10.020;2022-12-07T01:59:21;3.30;99.90
26051;DHT22;13825;53.496;10.020;2022-12-07T02:01:50;3.30;99.90
26051;DHT22;13825;53.496;10.020;2022-12-07T02:04:18;3.20;99.90
26051;DHT22;13825;53.496;10.020;2022-12-07T02:06:49;3.20;99.90
26051;DHT22;13825;53.496;10.020;2022-12-07T02:09:17;3.10;99.90
26051;DHT22;13825;53.496;10.020;2022-12-07T02:11:47;3.20;99.90
26051;DHT22;13825;53.496;10.020;2022-12-07T02:14:20;3.20;99.90
26051;DHT22;13825;53.496;10.020;2022-12-07T02:16:59;3.10;99.90
26051;DHT22;13825;53.496;10.020;2022-12-07T02:25:33;2.90;99.90
26051;DHT22;13825;53.496;10.020;2022-12-07T02:28:14;2.80;99.90
26051;DHT22;13825;53.496;10.020;2022-12-07T02:30:52;2.80;99.90
26051;DHT22;13825;53.496;10.020;2022-12-07T02:33:30;2.70;99.90
26051;DHT22;13825;53.496;10.020;2022-12-07T02:36:02;2.70;99.90
26051;DHT22;13825;53.496;10.020;2022-12-07T02:38:37;2.70;99.90
26051;DHT22;13825;53.496;10.020;2022-12-07T02:41:11;2.70;99.90
26051;DHT22;13825;53.496;10.020;2022-12-07T02:43:45;2.70;99.90
26051;DHT22;13825;53.496;10.020;2022-12-07T02:46:19;2.60;99.90
26051;DHT22;13825;53.496;10.020;2022-12-07T02:48:49;2.70;99.90
26051;DHT22;13825;53.496;10.020;2022-12-07T02:51:17;2.60;99.90
26051;DHT22;13825;53.496;10.020;2022-12-07T02:53:45;2.60;99.90
26051;DHT22;13825;53.496;10.020;2022-12-07T02:56:24;2.60;99.90
26051;DHT22;13825;53.496;10.020;2022-12-07T02:59:02;2.60;99.90
26051;DHT22;13825;53.496;10.020;2022-12-07T03:01:41;2.60;99.90
26051;DHT22;13825;53.496;10.020;2022-12-07T03:04:32;2.70;99.90
26051;DHT22;13825;53.496;10.020;2022-12-07T03:07:06;2.60;99.90
26051;DHT22;13825;53.496;10.020;2022-12-07T03:09:39;2.80;99.90
26051;DHT22;13825;53.496;10.020;2022-12-07T03:12:14;2.60;99.90
26051;DHT22;13825;53.496;10.020;2022-12-07T03:14:49;2.50;99.90
26051;DHT22;13825;53.496;10.020;2022-12-07T03:17:21;2.40;99.90
26051;DHT22;13825;53.496;10.020;2022-12-07T03:19:54;2.60;99.90
26051;DHT22;13825;53.496;10.020;2022-12-07T03:22:23;2.60;99.90
26051;DHT22;13825;53.496;10.020;2022-12-07T03:24:56;2.60;99.90
26051;DHT22;13825;53.496;10.020;2022-12-07T03:27:27;2.60;99.90
26051;DHT22;13825;53.496;10.020;2022-12-07T03:30:02;2.60;99.90
26051;DHT22;13825;53.496;10.020;2022-12-07T03:32:34;2.60;99.90
26051;DHT22;13825;53.496;10.020;2022-12-07T03:35:08;2.60;99.90
26051;DHT22;13825;53.496;10.020;2022-12-07T03:37:42;2.60;99.90
26051;DHT22;13825;53.496;10.020;2022-12-07T03:40:21;2.50;99.90
26051;DHT22;13825;53.496;10.020;2022-12-07T03:42:54;2.50;99.90
26051;DHT22;13825;53.496;10.020;2022-12-07T03:45:31;2.40;99.90
26051;DHT22;13825;53.496;10.020;2022-12-07T03:48:07;2.40;99.90
26051;DHT22;13825;53.496;10.020;2022-12-07T03:50:43;2.40;99.90
26051;DHT22;13825;53.496;10.020;2022-12-07T03:53:14;2.40;99.90
26051;DHT22;13825;53.496;10.020;2022-12-07T03:55:44;2.40;99.90
26051;DHT22;13825;53.496;10.020;2022-12-07T03:58:16;2.40;99.90
26051;DHT22;13825;53.496;10.020;2022-12-07T04:00:44;2.50;99.90
26051;DHT22;13825;53.496;10.020;2022-12-07T04:03:17;2.40;99.90
26051;DHT22;13825;53.496;10.020;2022-12-07T04:05:49;2.50;99.90
26051;DHT22;13825;53.496;10.020;2022-12-07T04:08:25;2.40;99.90
26051;DHT22;13825;53.496;10.020;2022-12-07T04:10:55;2.30;99.90
26051;DHT22;13825;53.496;10.020;2022-12-07T04:13:32;2.20;99.90
26051;DHT22;13825;53.496;10.020;2022-12-07T04:16:16;2.30;99.90
26051;DHT22;13825;53.496;10.020;2022-12-07T04:18:48;2.30;99.90
26051;DHT22;13825;53.496;10.020;2022-12-07T04:21:16;2.30;99.90
26051;DHT22;13825;53.496;10.020;2022-12-07T04:23:48;2.30;99.90
26051;DHT22;13825;53.496;10.020;2022-12-07T04:26:35;2.30;99.90
26051;DHT22;13825;53.496;10.020;2022-12-07T04:29:07;2.30;99.90
26051;DHT22;13825;53.496;10.020;2022-12-07T04:31:38;2.20;99.90
26051;DHT22;13825;53.496;10.020;2022-12-07T04:34:14;2.20;99.90
26051;DHT22;13825;53.496;10.020;2022-12-07T04:36:42;2.30;99.90
26051;DHT22;13825;53.496;10.020;2022-12-07T04:39:21;2.30;99.90
26051;DHT22;13825;53.496;10.020;2022-12-07T04:41:55;2.20;99.90
26051;DHT22;13825;53.496;10.020;2022-12-07T04:44:25;2.10;99.90
26051;DHT22;13825;53.496;10.020;2022-12-07T04:46:55;2.10;99.90
26051;DHT22;13825;53.496;10.020;2022-12-07T04:49:30;2.00;99.90
26051;DHT22;13825;53.496;10.020;2022-12-07T04:51:57;1.90;99.90
26051;DHT22;13825;53.496;10.020;2022-12-07T04:54:24;1.80;99.90
26051;DHT22;13825;53.496;10.020;2022-12-07T04:56:52;1.90;99.90
26051;DHT22;13825;53.496;10.020;2022-12-07T04:59:21;1.80;99.90
26051;DHT22;13825;53.496;10.020;2022-12-07T05:01:49;1.80;99.90
26051;DHT22;13825;53.496;10.020;2022-12-07T05:04:17;1.80;99.90
26051;DHT22;13825;53.496;10.020;2022-12-07T05:06:45;1.80;99.90
26051;DHT22;13825;53.496;10.020;2022-12-07T05:09:13;1.70;99.90
26051;DHT22;13825;53.496;10.020;2022-12-07T05:11:40;1.70;99.90
26051;DHT22;13825;53.496;10.020;2022-12-07T05:14:11;1.70;99.90
26051;DHT22;13825;53.496;10.020;2022-12-07T05:16:38;1.70;99.90
26051;DHT22;13825;53.496;10.020;2022-12-07T05:19:07;1.60;99.90
26051;DHT22;13825;53.496;10.020;2022-12-07T05:21:34;1.60;99.90
26051;DHT22;13825;53.496;10.020;2022-12-07T05:24:03;1.50;99.90
26051;DHT22;13825;53.496;10.020;2022-12-07T05:26:30;1.50;99.90
26051;DHT22;13825;53.496;10.020;2022-12-07T05:28:57;1.50;99.90
26051;DHT22;13825;53.496;10.020;2022-12-07T05:31:25;1.40;99.90
26051;DHT22;13825;53.496;10.020;2022-12-07T05:33:52;1.40;99.90
26051;DHT22;13825;53.496;10.020;2022-12-07T05:36:20;1.40;99.90
26051;DHT22;13825;53.496;10.020;2022-12-07T05:38:47;1.40;99.90
26051;DHT22;13825;53.496;10.020;2022-12-07T05:41:17;1.40;99.90
26051;DHT22;13825;53.496;10.020;2022-12-07T05:44:02;1.40;99.90
26051;DHT22;13825;53.496;10.020;2022-12-07T05:46:32;1.30;99.90
26051;DHT22;13825;53.496;10.020;2022-12-07T05:49:02;1.40;99.90
26051;DHT22;13825;53.496;10.020;2022-12-07T05:51:29;1.40;99.90
26051;DHT22;13825;53.496;10.020;2022-12-07T05:53:56;1.30;99.90
26051;DHT22;13825;53.496;10.020;2022-12-07T05:56:24;1.40;99.90
26051;DHT22;13825;53.496;10.020;2022-12-07T05:58:52;1.40;99.90
26051;DHT22;13825;53.496;10.020;2022-12-07T06:01:36;1.50;99.90
26051;DHT22;13825;53.496;10.020;2022-12-07T06:04:04;1.40;99.90
26051;DHT22;13825;53.496;10.020;2022-12-07T06:06:31;1.40;99.90
26051;DHT22;13825;53.496;10.020;2022-12-07T06:08:58;1.40;99.90
26051;DHT22;13825;53.496;10.020;2022-12-07T06:11:27;1.50;99.90
26051;DHT22;13825;53.496;10.020;2022-12-07T06:14:12;1.50;99.90
26051;DHT22;13825;53.496;10.020;2022-12-07T06:16:39;1.50;99.90
26051;DHT22;13825;53.496;10.020;2022-12-07T06:19:06;1.50;99.90
26051;DHT22;13825;53.496;10.020;2022-12-07T06:21:33;1.50;99.90
26051;DHT22;13825;53.496;10.020;2022-12-07T06:24:04;1.60;99.90
26051;DHT22;13825;53.496;10.020;2022-12-07T06:26:35;1.50;99.90
26051;DHT22;13825;53.496;10.020;2022-12-07T06:29:02;1.60;99.90
26051;DHT22;13825;53.496;10.020;2022-12-07T06:31:31;1.60;99.90
26051;DHT22;13825;53.496;10.020;2022-12-07T06:33:59;1.60;99.90
26051;DHT22;13825;53.496;10.020;2022-12-07T06:36:35;1.60;99.90
26051;DHT22;13825;53.496;10.020;2022-12-07T06:39:06;1.60;99.90
26051;DHT22;13825;53.496;10.020;2022-12-07T06:41:38;1.70;99.90
26051;DHT22;13825;53.496;10.020;2022-12-07T06:44:05;1.70;99.90
26051;DHT22;13825;53.496;10.020;2022-12-07T06:46:35;1.70;99.90
26051;DHT22;13825;53.496;10.020;2022-12-07T06:49:08;1.80;99.90
26051;DHT22;13825;53.496;10.020;2022-12-07T06:51:38;1.80;99.90
26051;DHT22;13825;53.496;10.020;2022-12-07T06:54:07;1.80;99.90
26051;DHT22;13825;53.496;10.020;2022-12-07T06:56:34;1.90;99.90
26051;DHT22;13825;53.496;10.020;2022-12-07T06:59:06;1.80;99.90
26051;DHT22;13825;53.496;10.020;2022-12-07T07:01:34;1.80;99.90
26051;DHT22;13825;53.496;10.020;2022-12-07T07:04:02;1.70;99.90
26051;DHT22;13825;53.496;10.020;2022-12-07T07:06:29;1.70;99.90
26051;DHT22;13825;53.496;10.020;2022-12-07T07:08:56;1.80;99.90
26051;DHT22;13825;53.496;10.020;2022-12-07T07:11:29;1.70;99.90
26051;DHT22;13825;53.496;10.020;2022-12-07T07:13:56;1.70;99.90
26051;DHT22;13825;53.496;10.020;2022-12-07T07:16:29;1.70;99.90
26051;DHT22;13825;53.496;10.020;2022-12-07T07:18:56;1.70;99.90
26051;DHT22;13825;53.496;10.020;2022-12-07T07:21:24;1.80;99.90
26051;DHT22;13825;53.496;10.020;2022-12-07T07:23:51;1.90;99.90
26051;DHT22;13825;53.496;10.020;2022-12-07T07:26:18;1.90;99.90
26051;DHT22;13825;53.496;10.020;2022-12-07T07:28:45;1.90;99.90
26051;DHT22;13825;53.496;10.020;2022-12-07T07:31:12;1.90;99.90
26051;DHT22;13825;53.496;10.020;2022-12-07T07:33:41;1.90;99.90
26051;DHT22;13825;53.496;10.020;2022-12-07T07:36:08;1.90;99.90
26051;DHT22;13825;53.496;10.020;2022-12-07T07:38:35;2.00;99.90
26051;DHT22;13825;53.496;10.020;2022-12-07T07:41:02;1.90;99.90
26051;DHT22;13825;53.496;10.020;2022-12-07T07:43:31;2.00;99.90
26051;DHT22;13825;53.496;10.020;2022-12-07T07:45:58;2.00;99.90
26051;DHT22;13825;53.496;10.020;2022-12-07T07:48:27;2.00;99.90
26051;DHT22;13825;53.496;10.020;2022-12-07T07:50:55;2.10;99.90
26051;DHT22;13825;53.496;10.020;2022-12-07T07:53:23;2.00;99.90
26051;DHT22;13825;53.496;10.020;2022-12-07T07:55:51;2.10;99.90
26051;DHT22;13825;53.496;10.020;2022-12-07T07:58:19;2.00;99.90
26051;DHT22;13825;53.496;10.020;2022-12-07T08:00:46;2.00;99.90
26051;DHT22;13825;53.496;10.020;2022-12-07T08:03:13;2.10;99.90
26051;DHT22;13825;53.496;10.020;2022-12-07T08:05:40;2.10;99.90
26051;DHT22;13825;53.496;10.020;2022-12-07T08:08:08;2.10;99.90
26051;DHT22;13825;53.496;10.020;2022-12-07T08:10:35;2.10;99.90
26051;DHT22;13825;53.496;10.020;2022-12-07T08:13:03;2.20;99.90
26051;DHT22;13825;53.496;10.020;2022-12-07T08:15:49;2.20;99.90
26051;DHT22;13825;53.496;10.020;2022-12-07T08:18:16;2.20;99.90
26051;DHT22;13825;53.496;10.020;2022-12-07T08:20:43;2.30;99.90
26051;DHT22;13825;53.496;10.020;2022-12-07T08:23:12;2.30;99.90
26051;DHT22;13825;53.496;10.020;2022-12-07T08:25:39;2.30;99.90
26051;DHT22;13825;53.496;10.020;2022-12-07T08:28:06;2.20;99.90
26051;DHT22;13825;53.496;10.020;2022-12-07T08:30:34;2.30;99.90
26051;DHT22;13825;53.496;10.020;2022-12-07T08:33:01;2.30;99.90
26051;DHT22;13825;53.496;10.020;2022-12-07T08:35:28;2.30;99.90
26051;DHT22;13825;53.496;10.020;2022-12-07T08:37:56;2.30;99.90
26051;DHT22;13825;53.496;10.020;2022-12-07T08:40:34;2.30;99.90
26051;DHT22;13825;53.496;10.020;2022-12-07T08:43:03;2.40;99.90
26051;DHT22;13825;53.496;10.020;2022-12-07T08:45:31;2.40;99.90
26051;DHT22;13825;53.496;10.020;2022-12-07T08:48:03;2.40;99.90
26051;DHT22;13825;53.496;10.020;2022-12-07T08:50:36;2.50;99.90
26051;DHT22;13825;53.496;10.020;2022-12-07T08:53:16;2.50;99.90
26051;DHT22;13825;53.496;10.020;2022-12-07T08:55:46;2.50;99.90
26051;DHT22;13825;53.496;10.020;2022-12-07T08:58:20;2.60;99.90
26051;DHT22;13825;53.496;10.020;2022-12-07T09:00:50;2.60;99.90
26051;DHT22;13825;53.496;10.020;2022-12-07T09:03:18;2.60;99.90
26051;DHT22;13825;53.496;10.020;2022-12-07T09:05:47;2.70;99.90
26051;DHT22;13825;53.496;10.020;2022-12-07T09:08:19;2.70;99.90
26051;DHT22;13825;53.496;10.020;2022-12-07T09:10:49;2.70;99.90
26051;DHT22;13825;53.496;10.020;2022-12-07T09:13:17;2.80;99.90
26051;DHT22;13825;53.496;10.020;2022-12-07T09:15:53;3.00;99.90
26051;DHT22;13825;53.496;10.020;2022-12-07T09:18:23;2.90;99.90
26051;DHT22;13825;53.496;10.020;2022-12-07T09:20:51;3.00;99.90
26051;DHT22;13825;53.496;10.020;2022-12-07T09:23:18;3.10;99.90
26051;DHT22;13825;53.496;10.020;2022-12-07T09:25:46;3.10;99.90
26051;DHT22;13825;53.496;10.020;2022-12-07T09:28:23;3.20;99.90
26051;DHT22;13825;53.496;10.020;2022-12-07T09:31:07;3.20;99.90
26051;DHT22;13825;53.496;10.020;2022-12-07T09:33:59;3.20;99.90
26051;DHT22;13825;53.496;10.020;2022-12-07T09:36:42;3.30;99.90
26051;DHT22;13825;53.496;10.020;2022-12-07T09:39:16;3.30;99.90
26051;DHT22;13825;53.496;10.020;2022-12-07T09:42:11;3.20;99.90
26051;DHT22;13825;53.496;10.020;2022-12-07T09:44:46;3.30;99.90
26051;DHT22;13825;53.496;10.020;2022-12-07T09:47:29;3.30;99.90
26051;DHT22;13825;53.496;10.020;2022-12-07T09:50:03;3.40;99.90
26051;DHT22;13825;53.496;10.020;2022-12-07T09:52:31;3.30;99.90
26051;DHT22;13825;53.496;10.020;2022-12-07T09:55:11;3.50;99.90
26051;DHT22;13825;53.496;10.020;2022-12-07T09:57:39;3.40;99.90
26051;DHT22;13825;53.496;10.020;2022-12-07T10:00:12;3.40;99.90
26051;DHT22;13825;53.496;10.020;2022-12-07T10:02:46;3.40;99.90
26051;DHT22;13825;53.496;10.020;2022-12-07T10:05:19;3.40;99.90
26051;DHT22;13825;53.496;10.020;2022-12-07T10:07:49;3.40;99.90
26051;DHT22;13825;53.496;10.020;2022-12-07T10:10:20;3.40;99.90
26051;DHT22;13825;53.496;10.020;2022-12-07T10:12:58;3.40;99.90
26051;DHT22;13825;53.496;10.020;2022-12-07T10:15:48;3.50;99.90
26051;DHT22;13825;53.496;10.020;2022-12-07T10:18:25;3.40;99.90
26051;DHT22;13825;53.496;10.020;2022-12-07T10:21:02;3.40;99.90
26051;DHT22;13825;53.496;10.020;2022-12-07T10:23:29;3.40;99.90
26051;DHT22;13825;53.496;10.020;2022-12-07T10:25:58;3.50;99.90
26051;DHT22;13825;53.496;10.020;2022-12-07T10:28:35;3.40;99.90
26051;DHT22;13825;53.496;10.020;2022-12-07T10:31:25;3.30;99.90
26051;DHT22;13825;53.496;10.020;2022-12-07T10:34:00;3.30;99.90
26051;DHT22;13825;53.496;10.020;2022-12-07T10:36:50;3.30;99.90
26051;DHT22;13825;53.496;10.020;2022-12-07T10:39:45;3.40;99.90
26051;DHT22;13825;53.496;10.020;2022-12-07T10:42:18;3.30;99.90
26051;DHT22;13825;53.496;10.020;2022-12-07T10:44:46;3.40;99.90
26051;DHT22;13825;53.496;10.020;2022-12-07T10:47:28;3.50;99.90
26051;DHT22;13825;53.496;10.020;2022-12-07T10:50:40;3.40;99.90
26051;DHT22;13825;53.496;10.020;2022-12-07T10:53:31;3.40;99.90
26051;DHT22;13825;53.496;10.020;2022-12-07T10:59:56;3.60;99.90
26051;DHT22;13825;53.496;10.020;2022-12-07T11:05:39;3.60;99.90
26051;DHT22;13825;53.496;10.020;2022-12-07T11:08:20;3.70;99.90
26051;DHT22;13825;53.496;10.020;2022-12-07T11:10:55;3.70;99.90
26051;DHT22;13825;53.496;10.020;2022-12-07T11:13:44;3.70;99.90
26051;DHT22;13825;53.496;10.020;2022-12-07T11:16:23;3.70;99.90
26051;DHT22;13825;53.496;10.020;2022-12-07T11:19:03;3.70;99.90
26051;DHT22;13825;53.496;10.020;2022-12-07T11:21:42;3.70;99.90
26051;DHT22;13825;53.496;10.020;2022-12-07T11:24:17;3.70;99.90
26051;DHT22;13825;53.496;10.020;2022-12-07T11:27:02;3.70;99.90
26051;DHT22;13825;53.496;10.020;2022-12-07T11:29:50;3.70;99.90
26051;DHT22;13825;53.496;10.020;2022-12-07T11:32:24;3.60;99.90
26051;DHT22;13825;53.496;10.020;2022-12-07T11:35:04;3.70;99.90
26051;DHT22;13825;53.496;10.020;2022-12-07T11:37:34;3.70;99.90
26051;DHT22;13825;53.496;10.020;2022-12-07T11:40:05;3.70;99.90
26051;DHT22;13825;53.496;10.020;2022-12-07T11:42:36;3.70;99.90
26051;DHT22;13825;53.496;10.020;2022-12-07T11:45:14;3.80;99.90
26051;DHT22;13825;53.496;10.020;2022-12-07T11:47:47;3.70;99.90
26051;DHT22;13825;53.496;10.020;2022-12-07T11:50:31;3.70;99.90
26051;DHT22;13825;53.496;10.020;2022-12-07T11:53:05;3.60;99.90
26051;DHT22;13825;53.496;10.020;2022-12-07T11:55:43;3.60;99.90
26051;DHT22;13825;53.496;10.020;2022-12-07T11:58:33;3.70;99.90
26051;DHT22;13825;53.496;10.020;2022-12-07T12:01:17;3.70;99.90
26051;DHT22;13825;53.496;10.020;2022-12-07T12:03:51;3.60;99.90
26051;DHT22;13825;53.496;10.020;2022-12-07T12:06:21;3.80;99.90
26051;DHT22;13825;53.496;10.020;2022-12-07T12:08:54;3.70;99.90
26051;DHT22;13825;53.496;10.020;2022-12-07T12:11:43;3.80;99.90
26051;DHT22;13825;53.496;10.020;2022-12-07T12:14:44;3.80;99.90
26051;DHT22;13825;53.496;10.020;2022-12-07T12:20:27;3.80;99.90
26051;DHT22;13825;53.496;10.020;2022-12-07T12:23:01;3.90;99.90
26051;DHT22;13825;53.496;10.020;2022-12-07T12:25:39;3.90;99.90
26051;DHT22;13825;53.496;10.020;2022-12-07T12:28:23;3.90;99.90
26051;DHT22;13825;53.496;10.020;2022-12-07T12:31:09;3.90;99.90
26051;DHT22;13825;53.496;10.020;2022-12-07T12:33:46;4.00;99.90
26051;DHT22;13825;53.496;10.020;2022-12-07T12:36:23;4.00;99.90
26051;DHT22;13825;53.496;10.020;2022-12-07T12:39:10;4.10;99.90
26051;DHT22;13825;53.496;10.020;2022-12-07T12:41:56;4.20;99.90
26051;DHT22;13825;53.496;10.020;2022-12-07T12:47:58;4.30;99.90
26051;DHT22;13825;53.496;10.020;2022-12-07T12:50:35;4.50;99.90
26051;DHT22;13825;53.496;10.020;2022-12-07T12:53:19;4.50;99.90
26051;DHT22;13825;53.496;10.020;2022-12-07T12:56:20;4.60;99.90
26051;DHT22;13825;53.496;10.020;2022-12-07T12:59:28;4.60;99.90
26051;DHT22;13825;53.496;10.020;2022-12-07T13:02:15;4.40;99.90
26051;DHT22;13825;53.496;10.020;2022-12-07T13:04:55;4.40;99.90
26051;DHT22;13825;53.496;10.020;2022-12-07T13:10:46;4.40;99.90
26051;DHT22;13825;53.496;10.020;2022-12-07T13:13:42;4.40;99.90
26051;DHT22;13825;53.496;10.020;2022-12-07T13:16:39;4.50;99.90
26051;DHT22;13825;53.496;10.020;2022-12-07T13:22:47;4.20;99.90
26051;DHT22;13825;53.496;10.020;2022-12-07T13:25:26;4.40;99.90
26051;DHT22;13825;53.496;10.020;2022-12-07T13:28:21;4.40;99.90
26051;DHT22;13825;53.496;10.020;2022-12-07T13:34:26;4.30;99.90
26051;DHT22;13825;53.496;10.020;2022-12-07T13:36:52;4.20;99.90
26051;DHT22;13825;53.496;10.020;2022-12-07T13:39:28;4.20;99.90
26051;DHT22;13825;53.496;10.020;2022-12-07T13:41:59;4.10;99.90
26051;DHT22;13825;53.496;10.020;2022-12-07T13:44:40;4.00;99.90
26051;DHT22;13825;53.496;10.020;2022-12-07T13:47:25;4.20;99.90
26051;DHT22;13825;53.496;10.020;2022-12-07T13:50:20;4.20;99.90
26051;DHT22;13825;53.496;10.020;2022-12-07T13:53:21;4.10;99.90
26051;DHT22;13825;53.496;10.020;2022-12-07T13:55:59;4.10;99.90
26051;DHT22;13825;53.496;10.020;2022-12-07T13:58:27;4.10;99.90
26051;DHT22;13825;53.496;10.020;2022-12-07T14:00:59;4.10;99.90
26051;DHT22;13825;53.496;10.020;2022-12-07T14:03:35;4.00;99.90
26051;DHT22;13825;53.496;10.020;2022-12-07T14:06:26;4.00;99.90
26051;DHT22;13825;53.496;10.020;2022-12-07T14:09:16;4.00;99.90
26051;DHT22;13825;53.496;10.020;2022-12-07T14:11:57;4.00;99.90
26051;DHT22;13825;53.496;10.020;2022-12-07T14:14:33;3.90;99.90
26051;DHT22;13825;53.496;10.020;2022-12-07T14:17:09;3.90;99.90
26051;DHT22;13825;53.496;10.020;2022-12-07T14:19:47;3.90;99.90
26051;DHT22;13825;53.496;10.020;2022-12-07T14:22:33;3.90;99.90
26051;DHT22;13825;53.496;10.020;2022-12-07T14:25:23;3.70;99.90
26051;DHT22;13825;53.496;10.020;2022-12-07T14:27:54;3.70;99.90
26051;DHT22;13825;53.496;10.020;2022-12-07T14:33:29;3.60;99.90
26051;DHT22;13825;53.496;10.020;2022-12-07T14:36:05;3.50;99.90
26051;DHT22;13825;53.496;10.020;2022-12-07T14:38:50;3.50;99.90
26051;DHT22;13825;53.496;10.020;2022-12-07T14:41:23;3.40;99.90
26051;DHT22;13825;53.496;10.020;2022-12-07T14:44:10;3.30;99.90
26051;DHT22;13825;53.496;10.020;2022-12-07T14:46:40;3.30;99.90
26051;DHT22;13825;53.496;10.020;2022-12-07T14:49:14;3.20;99.90
26051;DHT22;13825;53.496;10.020;2022-12-07T14:51:51;3.10;99.90
26051;DHT22;13825;53.496;10.020;2022-12-07T14:54:24;3.10;99.90
26051;DHT22;13825;53.496;10.020;2022-12-07T14:57:01;3.20;99.90
26051;DHT22;13825;53.496;10.020;2022-12-07T15:02:22;2.90;99.90
26051;DHT22;13825;53.496;10.020;2022-12-07T15:05:10;2.80;99.90
26051;DHT22;13825;53.496;10.020;2022-12-07T15:08:09;2.80;99.90
26051;DHT22;13825;53.496;10.020;2022-12-07T15:11:01;2.70;99.90
26051;DHT22;13825;53.496;10.020;2022-12-07T15:13:38;2.70;99.90
26051;DHT22;13825;53.496;10.020;2022-12-07T15:16:46;2.60;99.90
26051;DHT22;13825;53.496;10.020;2022-12-07T15:19:22;2.60;99.90
26051;DHT22;13825;53.496;10.020;2022-12-07T15:22:03;2.50;99.90
26051;DHT22;13825;53.496;10.020;2022-12-07T15:25:05;2.50;99.90
26051;DHT22;13825;53.496;10.020;2022-12-07T15:27:46;2.30;99.90
26051;DHT22;13825;53.496;10.020;2022-12-07T15:30:41;2.30;99.90
26051;DHT22;13825;53.496;10.020;2022-12-07T15:33:33;2.30;99.90
26051;DHT22;13825;53.496;10.020;2022-12-07T15:36:27;2.30;99.90
26051;DHT22;13825;53.496;10.020;2022-12-07T15:38:58;2.20;99.90
26051;DHT22;13825;53.496;10.020;2022-12-07T15:51:52;2.30;99.90
26051;DHT22;13825;53.496;10.020;2022-12-07T15:54:35;2.40;99.90
26051;DHT22;13825;53.496;10.020;2022-12-07T15:57:03;2.40;99.90
26051;DHT22;13825;53.496;10.020;2022-12-07T15:59:41;2.30;99.90
26051;DHT22;13825;53.496;10.020;2022-12-07T16:02:10;2.30;99.90
26051;DHT22;13825;53.496;10.020;2022-12-07T16:04:50;2.20;99.90
26051;DHT22;13825;53.496;10.020;2022-12-07T16:07:47;2.10;99.90
26051;DHT22;13825;53.496;10.020;2022-12-07T16:10:22;2.00;99.90
26051;DHT22;13825;53.496;10.020;2022-12-07T16:13:04;2.00;99.90
26051;DHT22;13825;53.496;10.020;2022-12-07T16:15:53;1.90;99.90
26051;DHT22;13825;53.496;10.020;2022-12-07T16:18:44;1.70;99.90
26051;DHT22;13825;53.496;10.020;2022-12-07T16:21:17;1.60;99.90
26051;DHT22;13825;53.496;10.020;2022-12-07T16:23:52;1.40;99.90
26051;DHT22;13825;53.496;10.020;2022-12-07T16:26:37;1.40;99.90
26051;DHT22;13825;53.496;10.020;2022-12-07T16:29:36;1.20;99.90
26051;DHT22;13825;53.496;10.020;2022-12-07T16:32:04;1.10;99.90
26051;DHT22;13825;53.496;10.020;2022-12-07T16:34:33;1.10;99.90
26051;DHT22;13825;53.496;10.020;2022-12-07T16:37:14;1.00;99.90
26051;DHT22;13825;53.496;10.020;2022-12-07T16:39:41;1.10;99.90
26051;DHT22;13825;53.496;10.020;2022-12-07T16:42:08;1.10;99.90
26051;DHT22;13825;53.496;10.020;2022-12-07T16:44:35;1.10;99.90
26051;DHT22;13825;53.496;10.020;2022-12-07T16:47:02;1.20;99.90
26051;DHT22;13825;53.496;10.020;2022-12-07T16:49:29;1.10;99.90
26051;DHT22;13825;53.496;10.020;2022-12-07T16:51:57;1.10;99.90
26051;DHT22;13825;53.496;10.020;2022-12-07T16:54:30;0.90;99.90
26051;DHT22;13825;53.496;10.020;2022-12-07T16:57:00;0.90;99.90
26051;DHT22;13825;53.496;10.020;2022-12-07T16:59:27;0.70;99.90
26051;DHT22;13825;53.496;10.020;2022-12-07T17:01:56;0.70;99.90